Time;durP1;ratioP1;P1;durP2;ratioP2;P2;SDS_P1;SDS_P2;PMS_P1;PMS_P2;Temp;Humidity;BMP_temperature;BMP_pressure;BME280_temperature;BME280_humidity;BME280_pressure;Samples;Min_cycle;Max_cycle;Signal;HPM_P1;HPM_P2
2022/11/17 00:02:30;;;;;;;5.70;2.78;;;;;;;8.26;94.77;98668.19;4977492;28;20054;-78
2022/11/17 00:05:34;;;;;;;7.47;3.72;;;;;;;8.18;95.44;98669.72;4977395;28;20445;-78
2022/11/17 00:08:38;;;;;;;14.52;6.90;;;;;;;8.26;95.43;98663.00;4977627;28;20505;-79
2022/11/17 00:15:09;;;;;;;10.68;3.63;;;;;;;8.42;96.28;98664.50;4977141;28;20065;-80
2022/11/17 00:21:38;;;;;;;6.32;2.55;;;;;;;8.53;96.00;98635.94;4977238;28;20162;-79
2022/11/17 00:24:41;;;;;;;;;;;;;;;8.63;96.00;98633.47;4977512;28;20038;-79
2022/11/17 00:27:44;;;;;;;10.60;2.53;;;;;;;8.81;95.43;98624.28;4977116;28;20281;-78
2022/11/17 00:34:19;;;;;;;8.73;2.20;;;;;;;8.91;95.82;98612.22;4977015;28;20454;-78
2022/11/17 00:37:23;;;;;;;7.78;2.45;;;;;;;9.06;95.34;98603.22;4977069;28;20053;-78
2022/11/17 00:40:26;;;;;;;10.95;2.65;;;;;;;9.14;94.99;98593.97;4975965;28;20049;-77
2022/11/17 00:43:30;;;;;;;9.10;2.55;;;;;;;9.14;95.21;98580.94;4976538;28;20045;-77
2022/11/17 00:46:33;;;;;;;;;;;;;;;9.19;94.77;98578.78;4977164;28;20194;-79
2022/11/17 00:49:36;;;;;;;9.82;2.95;;;;;;;9.30;93.85;98570.97;4976935;28;20009;-79
2022/11/17 00:52:40;;;;;;;8.95;2.58;;;;;;;9.36;93.10;98567.06;4976446;28;20093;-79
2022/11/17 00:55:43;;;;;;;11.02;3.13;;;;;;;9.40;92.93;98561.47;4976513;28;20050;-79
2022/11/17 00:58:46;;;;;;;;;;;;;;;9.45;93.16;98550.69;4976842;28;20101;-79
2022/11/17 01:01:50;;;;;;;8.35;2.25;;;;;;;9.42;94.50;98540.50;4976549;28;19921;-79
2022/11/17 01:04:53;;;;;;;10.20;3.38;;;;;;;9.42;92.93;98537.88;4976592;28;20083;-79
2022/11/17 01:07:58;;;;;;;9.65;3.20;;;;;;;9.49;93.09;98531.22;4976085;28;20101;-79
2022/11/17 01:11:17;;;;;;;13.27;5.60;;;;;;;9.60;90.20;98540.78;4975920;28;20057;-79
2022/11/17 01:14:26;;;;;;;9.30;4.90;;;;;;;9.69;91.29;98540.88;4976069;28;20097;-79
2022/11/17 01:17:30;;;;;;;6.97;2.90;;;;;;;9.60;91.15;98532.97;4976176;28;20053;-79
2022/11/17 01:20:33;;;;;;;11.43;4.72;;;;;;;9.65;90.90;98526.44;4976038;28;20109;-79
2022/11/17 01:23:38;;;;;;;8.27;4.88;;;;;;;9.65;89.86;98523.00;4975868;28;20050;-79
2022/11/17 01:26:43;;;;;;;9.98;4.90;;;;;;;9.73;91.21;98508.41;4975872;28;20045;-76
2022/11/17 01:29:46;;;;;;;7.35;3.80;;;;;;;9.67;93.00;98493.22;4975647;28;20113;-76
2022/11/17 01:32:50;;;;;;;14.27;8.27;;;;;;;9.66;91.61;98495.94;4975569;28;20169;-76
2022/11/17 01:35:53;;;;;;;;;;;;;;;9.69;93.34;98498.31;4976054;28;20508;-76
2022/11/17 01:38:56;;;;;;;10.77;3.28;;;;;;;9.64;94.24;98488.25;4975337;28;19921;-76
2022/11/17 01:42:19;;;;;;;6.78;2.95;;;;;;;9.54;95.36;98490.78;4975189;28;20069;-76
2022/11/17 01:45:25;;;;;;;7.13;3.45;;;;;;;9.51;96.29;98491.03;4975425;28;20460;-76
2022/11/17 01:48:28;;;;;;;11.75;3.50;;;;;;;9.50;95.91;98485.91;4975345;28;20046;-76
2022/11/17 01:51:33;;;;;;;;;;;;;;;9.51;94.13;98490.22;4975458;28;20220;-76
2022/11/17 01:54:41;;;;;;;5.97;3.30;;;;;;;9.57;93.22;98475.81;4975254;28;20379;-76
2022/11/17 01:57:51;;;;;;;8.68;2.60;;;;;;;9.57;94.75;98468.00;4975339;28;20193;-76
2022/11/17 02:00:55;;;;;;;8.85;4.35;;;;;;;9.55;95.34;98442.84;4963277;28;20075;-76
2022/11/17 02:03:59;;;;;;;;;;;;;;;9.54;93.81;98436.00;4975587;28;20510;-75
2022/11/17 02:07:08;;;;;;;10.63;3.80;;;;;;;9.54;95.11;98428.16;4975125;28;19939;-75
2022/11/17 02:10:11;;;;;;;9.70;5.20;;;;;;;9.57;94.44;98423.63;4974765;28;20113;-75
2022/11/17 02:13:15;;;;;;;9.45;3.33;;;;;;;9.56;95.50;98417.59;4974793;28;20109;-76
2022/11/17 02:16:18;;;;;;;;;;;;;;;9.48;97.26;98410.41;4975500;28;20085;-76
2022/11/17 02:19:24;;;;;;;;;;;;;;;9.63;96.42;98412.69;4974965;28;19921;-76
2022/11/17 02:22:50;;;;;;;8.07;3.20;;;;;;;9.45;96.66;98408.03;4973518;28;20285;-76
2022/11/17 02:26:05;;;;;;;9.63;3.17;;;;;;;9.48;94.68;98410.41;4974777;28;20045;-76
2022/11/17 02:29:29;;;;;;;7.22;2.88;;;;;;;9.56;95.05;98407.16;4974522;28;20050;-76
2022/11/17 02:32:32;;;;;;;7.30;3.00;;;;;;;9.49;95.71;98406.84;4974461;28;20042;-76
2022/11/17 02:36:03;;;;;;;4.82;2.65;;;;;;;9.58;95.72;98394.00;4974496;28;20414;-77
2022/11/17 02:39:24;;;;;;;10.52;4.53;;;;;;;9.47;96.97;98389.63;4974192;28;20069;-76
2022/11/17 02:46:58;;;;;;;9.07;3.42;;;;;;;9.51;98.15;98373.63;4974568;28;20146;-76
2022/11/17 02:50:08;;;;;;;10.43;3.13;;;;;;;9.45;98.16;98371.53;4974147;28;20071;-76
2022/11/17 02:53:13;;;;;;;7.05;3.00;;;;;;;9.53;97.92;98363.88;4974239;28;20097;-76
2022/11/17 02:56:17;;;;;;;10.10;3.05;;;;;;;9.55;97.65;98364.59;4974000;28;20049;-76
2022/11/17 02:59:40;;;;;;;;;;;;;;;9.43;98.78;98360.38;4974491;28;20080;-76
2022/11/17 03:02:56;;;;;;;7.90;2.78;;;;;;;9.48;99.05;98363.44;4973928;28;20021;-76
2022/11/17 03:06:11;;;;;;;11.07;3.30;;;;;;;9.52;98.44;98356.19;4973701;28;20053;-76
2022/11/17 03:09:25;;;;;;;9.65;3.97;;;;;;;9.49;98.01;98353.84;4973478;28;20080;-76
2022/11/17 03:12:47;;;;;;;5.90;2.50;;;;;;;9.50;98.48;98356.31;4974052;28;20398;-76
2022/11/17 03:16:03;;;;;;;6.22;2.80;;;;;;;9.61;98.08;98354.63;4973771;28;20470;-76
2022/11/17 03:19:24;;;;;;;7.35;2.70;;;;;;;9.63;98.53;98339.63;4973658;28;20050;-76
2022/11/17 03:22:41;;;;;;;7.55;3.65;;;;;;;9.57;98.21;98329.72;4973456;28;20054;-76
2022/11/17 03:25:50;;;;;;;6.10;2.08;;;;;;;9.58;97.23;98310.50;4972798;28;20413;-75
2022/11/17 03:29:07;;;;;;;6.60;2.15;;;;;;;9.53;96.79;98309.09;4973591;28;20061;-76
2022/11/17 03:32:22;;;;;;;6.45;2.05;;;;;;;9.65;96.85;98311.66;4972556;28;20516;-76
2022/11/17 03:35:31;;;;;;;5.70;1.88;;;;;;;9.60;97.30;98303.38;4973452;28;20049;-76
2022/11/17 03:38:40;;;;;;;6.13;2.20;;;;;;;9.59;97.55;98307.75;4973654;28;20141;-76
2022/11/17 03:41:48;;;;;;;3.95;1.75;;;;;;;9.57;97.43;98309.66;4973557;28;20410;-76
2022/11/17 03:45:01;;;;;;;6.88;2.20;;;;;;;9.54;98.16;98315.97;4973639;28;20069;-76
2022/11/17 03:48:13;;;;;;;6.65;2.00;;;;;;;9.53;97.28;98322.13;4973385;28;20474;-76
2022/11/17 03:51:22;;;;;;;7.55;2.33;;;;;;;9.48;98.32;98326.09;4973263;28;20053;-76
2022/11/17 03:54:26;;;;;;;4.85;1.73;;;;;;;9.51;98.25;98334.50;4627567;28;9999985;-76
2022/11/17 03:57:49;;;;;;;5.18;1.95;;;;;;;9.40;99.37;98324.09;4969906;28;20073;-76
2022/11/17 04:00:54;;;;;;;2.90;1.70;;;;;;;9.46;99.19;98326.22;4969240;28;20074;-76
2022/11/17 04:03:59;;;;;;;6.05;2.15;;;;;;;9.44;99.19;98304.63;4969717;28;20064;-76
2022/11/17 04:07:02;;;;;;;6.03;2.05;;;;;;;9.44;99.32;98299.41;4969212;28;20565;-76
2022/11/17 04:10:07;;;;;;;;;;;;;;;9.44;99.13;98285.56;4970045;28;20556;-76
2022/11/17 04:16:35;;;;;;;4.60;1.75;;;;;;;9.18;99.81;98265.06;4969642;28;20098;-76
2022/11/17 04:19:38;;;;;;;3.60;1.60;;;;;;;9.20;100.00;98270.16;4968518;28;20101;-76
2022/11/17 04:22:42;;;;;;;5.10;1.48;;;;;;;9.21;98.00;98266.59;4969818;28;20046;-76
2022/11/17 04:29:10;;;;;;;7.47;2.10;;;;;;;9.20;97.68;98257.97;4969540;28;20134;-76
2022/11/17 04:32:13;;;;;;;;;;;;;;;9.10;97.66;98256.25;4969842;28;20102;-76
2022/11/17 04:35:17;;;;;;;7.15;2.70;;;;;;;9.02;98.43;98262.91;4969401;28;19925;-76
2022/11/17 04:38:20;;;;;;;5.93;2.38;;;;;;;9.04;98.01;98258.41;4969576;28;20081;-76
2022/11/17 04:44:47;;;;;;;4.45;1.40;;;;;;;9.07;97.47;98255.53;4971667;28;20254;-76
2022/11/17 04:47:50;;;;;;;6.50;1.95;;;;;;;9.08;96.78;98258.97;4972671;28;20467;-77
2022/11/17 04:50:57;;;;;;;4.20;1.63;;;;;;;9.08;96.71;98262.41;4972737;28;20053;-75
2022/11/17 04:54:01;;;;;;;3.70;1.75;;;;;;;9.11;97.04;98263.09;4977085;28;20456;-76
2022/11/17 04:57:05;;;;;;;7.65;1.63;;;;;;;8.96;97.51;98252.97;4991693;28;20407;-75
2022/11/17 05:00:08;;;;;;;;;;;;;;;9.14;97.14;98236.78;4992826;28;20053;-76
2022/11/17 05:03:11;;;;;;;5.32;1.30;;;;;;;9.26;96.44;98233.97;4991966;28;20690;-74
2022/11/17 05:06:23;;;;;;;5.55;1.65;;;;;;;9.36;96.10;98228.00;4981668;28;20144;-75
2022/11/17 05:09:27;;;;;;;5.97;1.35;;;;;;;9.40;96.51;98218.97;4980516;28;20116;-74
2022/11/17 05:19:17;;;;;;;;;;;;;;;9.32;98.35;98233.47;4631673;28;10000897;-75
2022/11/17 05:25:52;;;;;;;6.65;2.28;;;;;;;9.22;99.21;98218.72;4989224;28;20049;-75
2022/11/17 05:28:57;;;;;;;9.07;5.28;;;;;;;9.36;98.06;98228.00;4988182;28;20116;-74
2022/11/17 05:32:01;;;;;;;10.80;7.65;;;;;;;9.41;97.97;98237.09;4974493;28;20335;-75
2022/11/17 05:35:05;;;;;;;5.70;2.17;;;;;;;9.37;98.31;98234.88;4989578;28;20427;-74
2022/11/17 05:38:08;;;;;;;4.57;1.35;;;;;;;9.41;98.15;98220.59;4972220;28;20536;-74
2022/11/17 05:41:13;;;;;;;4.45;1.17;;;;;;;9.38;98.25;98219.09;4970617;28;20097;-75
2022/11/17 05:44:16;;;;;;;5.72;1.58;;;;;;;9.29;99.04;98227.69;4988236;28;20058;-75
2022/11/17 05:47:21;;;;;;;4.35;1.17;;;;;;;9.34;99.26;98230.72;4985728;28;20579;-75
2022/11/17 05:50:24;;;;;;;;;;;;;;;9.25;99.72;98226.28;4988423;28;20069;-75
2022/11/17 05:53:28;;;;;;;2.83;1.13;;;;;;;9.35;99.62;98228.94;4989323;28;20331;-75
2022/11/17 05:56:46;;;;;;;3.80;1.40;;;;;;;9.32;99.87;98227.44;4973087;28;20053;-75
2022/11/17 05:59:59;;;;;;;5.20;0.85;;;;;;;9.32;99.78;98232.66;4977718;28;20048;-75
2022/11/17 06:03:14;;;;;;;4.57;1.43;;;;;;;9.40;99.21;98230.22;4989279;28;20100;-75
2022/11/17 06:06:19;;;;;;;5.72;1.30;;;;;;;9.37;99.39;98227.88;4970427;28;20046;-75
2022/11/17 06:09:48;;;;;;;6.22;1.83;;;;;;;9.50;98.89;98231.09;4970141;28;20085;-75
2022/11/17 06:12:52;;;;;;;6.93;1.25;;;;;;;9.37;99.60;98233.06;4983814;28;20050;-75
2022/11/17 06:15:56;;;;;;;;;;;;;;;9.47;99.44;98225.31;4990758;28;20054;-74
2022/11/17 06:19:06;;;;;;;3.63;1.20;;;;;;;9.44;98.89;98239.44;4989577;28;20289;-74
2022/11/17 06:22:09;;;;;;;3.40;1.00;;;;;;;9.42;99.57;98249.19;4983042;28;20100;-73
2022/11/17 06:25:13;;;;;;;4.18;1.10;;;;;;;9.32;100.00;98259.56;4990038;28;20065;-77
2022/11/17 06:28:20;;;;;;;4.43;1.02;;;;;;;9.69;94.67;98214.69;4974103;28;20176;-77
2022/11/17 06:31:26;;;;;;;2.75;0.50;;;;;;;9.89;92.22;98238.25;4989414;28;20097;-80
2022/11/17 06:34:34;;;;;;;1.67;0.57;;;;;;;9.92;93.39;98244.06;4987478;28;20572;-80
2022/11/17 06:37:41;;;;;;;2.33;0.77;;;;;;;9.94;94.78;98254.38;4989526;28;20100;-80
2022/11/17 06:40:44;;;;;;;4.13;0.77;;;;;;;9.87;96.09;98242.81;4988272;28;20129;-80
2022/11/17 06:43:47;;;;;;;;;;;;;;;9.86;96.40;98221.09;4989593;28;20061;-80
2022/11/17 06:46:53;;;;;;;4.97;1.00;;;;;;;9.88;96.74;98224.38;4988435;28;19920;-79
2022/11/17 06:49:56;;;;;;;3.60;0.90;;;;;;;9.84;96.93;98241.28;4989618;28;20044;-80
2022/11/17 06:53:06;;;;;;;3.38;1.15;;;;;;;9.77;99.04;98240.16;4989341;28;20045;-80
2022/11/17 06:56:10;;;;;;;4.82;0.93;;;;;;;9.70;99.68;98236.38;4988987;28;20049;-80
2022/11/17 06:59:14;;;;;;;3.70;0.80;;;;;;;9.80;99.23;98246.91;4989034;28;20049;-80
2022/11/17 07:02:18;;;;;;;8.38;1.40;;;;;;;9.71;100.00;98258.94;4987270;28;20049;-80
2022/11/17 07:05:25;;;;;;;6.63;1.10;;;;;;;9.76;99.93;98243.69;4990017;28;20045;-80
2022/11/17 07:08:29;;;;;;;6.22;2.08;;;;;;;9.82;100.00;98237.13;4990034;28;20134;-79
2022/11/17 07:11:37;;;;;;;6.55;1.10;;;;;;;9.62;100.00;98238.84;4988501;28;20090;-78
2022/11/17 07:14:40;;;;;;;6.00;1.20;;;;;;;9.61;100.00;98245.03;4989220;28;20046;-78
2022/11/17 07:17:44;;;;;;;8.95;5.40;;;;;;;9.68;100.00;98244.38;4971548;28;20065;-79
2022/11/17 07:20:53;;;;;;;6.68;1.83;;;;;;;9.65;100.00;98231.56;4988304;28;20076;-78
2022/11/17 07:23:56;;;;;;;3.30;1.10;;;;;;;9.72;100.00;98234.50;4982636;28;20114;-78
2022/11/17 07:26:59;;;;;;;;;;;;;;;9.74;100.00;98233.41;4988420;28;20452;-78
2022/11/17 07:30:08;;;;;;;6.03;1.27;;;;;;;9.76;100.00;98241.09;4984880;28;19917;-78
2022/11/17 07:33:12;;;;;;;4.63;0.90;;;;;;;9.81;100.00;98241.53;4967544;28;20414;-78
2022/11/17 07:36:16;;;;;;;6.78;2.55;;;;;;;9.75;100.00;98244.66;4968088;28;20069;-78
2022/11/17 07:39:19;;;;;;;4.30;1.90;;;;;;;9.70;100.00;98239.00;4968779;28;20528;-78
2022/11/17 07:42:22;;;;;;;6.60;2.13;;;;;;;9.61;100.00;98231.97;4986086;28;20157;-77
2022/11/17 07:45:29;;;;;;;7.05;1.77;;;;;;;9.64;100.00;98237.75;4987191;28;20057;-75
2022/11/17 07:48:32;;;;;;;;;;;;;;;9.77;100.00;98242.75;4988993;28;20169;-75
2022/11/17 07:51:36;;;;;;;;;;;;;;;9.82;100.00;98240.56;4988349;28;19968;-75
2022/11/17 07:54:43;;;;;;;5.25;1.60;;;;;;;9.75;100.00;98234.22;4988070;28;20021;-73
2022/11/17 07:57:53;;;;;;;6.47;2.28;;;;;;;9.83;100.00;98231.81;4982748;28;20057;-73
2022/11/17 08:01:07;;;;;;;3.80;1.25;;;;;;;9.77;100.00;98230.53;4968210;28;20126;-72
2022/11/17 08:04:14;;;;;;;4.35;1.45;;;;;;;9.73;100.00;98241.34;4973000;28;20397;-73
2022/11/17 08:07:18;;;;;;;4.82;1.65;;;;;;;9.75;100.00;98249.88;4988362;28;20053;-73
2022/11/17 08:10:23;;;;;;;5.97;1.20;;;;;;;9.80;100.00;98258.16;4975706;28;20521;-73
2022/11/17 08:13:27;;;;;;;3.53;1.10;;;;;;;9.91;100.00;98255.44;4988151;28;20057;-73
2022/11/17 08:16:31;;;;;;;5.55;2.00;;;;;;;9.86;100.00;98260.25;4989087;28;20042;-73
2022/11/17 08:19:35;;;;;;;5.50;1.70;;;;;;;9.77;100.00;98264.47;4984713;28;20057;-73
2022/11/17 08:22:38;;;;;;;6.07;1.50;;;;;;;9.85;100.00;98271.63;4991189;28;20064;-75
2022/11/17 08:25:42;;;;;;;;;;;;;;;9.88;100.00;98266.16;4991392;28;20049;-75
2022/11/17 08:28:46;;;;;;;5.40;1.23;;;;;;;9.83;100.00;98267.50;4990338;28;20352;-75
2022/11/17 08:31:50;;;;;;;5.40;1.20;;;;;;;9.85;100.00;98270.81;4990925;28;20200;-75
2022/11/17 08:34:53;;;;;;;4.57;1.45;;;;;;;9.99;100.00;98276.53;4992426;28;20126;-75
2022/11/17 08:38:00;;;;;;;5.82;1.33;;;;;;;10.02;100.00;98271.03;4993106;28;20049;-75
2022/11/17 08:41:07;;;;;;;11.30;1.02;;;;;;;10.09;100.00;98279.16;4993844;28;20173;-75
2022/11/17 08:44:11;;;;;;;4.82;1.27;;;;;;;10.09;100.00;98273.13;4992030;28;20052;-75
2022/11/17 08:47:14;;;;;;;;;;;;;;;10.26;100.00;98277.72;4993638;28;20156;-75
2022/11/17 08:50:19;;;;;;;3.88;1.05;;;;;;;10.28;100.00;98281.03;4995092;28;19968;-75
2022/11/17 08:53:22;;;;;;;10.93;1.90;;;;;;;10.25;100.00;98283.88;4996694;28;20045;-75
2022/11/17 08:56:26;;;;;;;7.78;2.65;;;;;;;10.23;100.00;98285.78;4996640;28;20057;-77
2022/11/17 08:59:33;;;;;;;6.00;1.60;;;;;;;10.12;100.00;98288.53;4979418;28;20463;-76
2022/11/17 09:02:46;;;;;;;4.82;1.30;;;;;;;10.19;100.00;98289.63;4989668;28;20496;-74
2022/11/17 09:05:50;;;;;;;8.98;1.60;;;;;;;10.22;100.00;98299.81;4974138;28;20501;-74
2022/11/17 09:08:54;;;;;;;7.75;1.50;;;;;;;10.26;100.00;98306.47;4982561;28;20385;-74
2022/11/17 09:30:48;;;;;;;6.50;1.83;;;;;;;10.59;96.00;98322.78;5028195;23;20056;-74
2022/11/17 09:34:02;;;;;;;7.47;1.75;;;;;;;10.66;93.13;98336.97;4906117;29;20051;-76
2022/11/17 09:37:06;;;;;;;4.95;1.65;;;;;;;10.57;91.45;98346.44;4914661;29;20451;-76
2022/11/17 09:40:14;;;;;;;7.38;2.80;;;;;;;10.79;92.31;98345.41;4897762;29;20549;-76
2022/11/17 09:43:30;;;;;;;7.35;2.10;;;;;;;10.82;91.21;98346.91;4895878;29;20049;-76
2022/11/17 09:46:45;;;;;;;9.43;3.13;;;;;;;10.83;89.88;98353.78;4896875;29;20092;-75
2022/11/17 09:49:59;;;;;;;5.53;1.70;;;;;;;10.96;92.09;98358.75;4896041;29;20409;-74
2022/11/17 09:53:40;;;;;;;5.53;1.13;;;;;;;11.02;89.55;98361.66;4895219;29;20104;-76
2022/11/17 09:56:46;;;;;;;10.38;1.30;;;;;;;11.11;91.54;98365.25;4895351;29;20055;-75
2022/11/17 10:00:01;;;;;;;4.88;1.15;;;;;;;11.12;90.91;98375.56;4910471;29;20530;-75
2022/11/17 10:03:28;;;;;;;5.32;1.40;;;;;;;11.12;88.21;98369.50;4895384;29;20047;-75
2022/11/17 10:06:58;;;;;;;4.35;1.30;;;;;;;11.07;91.76;98387.38;4896586;29;20432;-74
2022/11/17 10:10:50;;;;;;;6.35;1.20;;;;;;;11.02;91.76;98387.00;4895470;29;20092;-74
2022/11/17 10:13:54;;;;;;;7.35;1.58;;;;;;;10.91;93.96;98393.13;4885036;29;20051;-75
2022/11/17 10:16:58;;;;;;;6.45;1.73;;;;;;;10.84;92.45;98398.09;4900184;29;20521;-74
2022/11/17 10:20:26;;;;;;;6.22;1.00;;;;;;;10.81;91.41;98395.72;4895175;29;20050;-74
2022/11/17 10:23:59;;;;;;;6.53;1.13;;;;;;;10.75;91.19;98396.25;4894146;29;20043;-73
2022/11/17 10:32:07;;;;;;;6.18;1.27;;;;;;;10.71;92.09;98381.81;4866092;29;20080;-74
2022/11/17 10:41:14;;;;;;;7.57;2.00;;;;;;;10.84;91.10;98387.63;5464326;23;20630;31
2022/11/17 10:44:23;;;;;;;10.40;5.18;;;;;;;10.81;92.65;98380.06;4855096;29;20056;-73
2022/11/17 10:47:39;;;;;;;25.33;21.42;;;;;;;10.81;92.45;98384.47;4856731;29;20569;-74
2022/11/17 10:51:33;;;;;;;12.65;7.55;;;;;;;10.84;94.83;98384.19;4856787;29;20052;-75
2022/11/17 10:55:47;;;;;;;8.63;5.10;;;;;;;10.77;94.91;98383.91;4848897;29;20462;-76
2022/11/17 10:59:12;;;;;;;16.30;11.73;;;;;;;10.88;98.26;98391.66;4855747;29;20141;-75
2022/11/17 11:13:30;;;;;;;6.25;1.27;;;;;;;10.83;92.69;98383.38;4858202;29;20121;-72
2022/11/17 11:17:33;;;;;;;10.48;3.10;;;;;;;10.91;89.89;98394.00;4855591;29;20524;-74
2022/11/17 11:20:48;;;;;;;5.10;1.20;;;;;;;10.95;90.19;98391.94;4855889;29;20052;-74
2022/11/17 11:24:33;;;;;;;11.90;4.30;;;;;;;11.00;92.31;98392.34;4854994;29;20057;-74
2022/11/17 11:28:29;;;;;;;7.60;1.90;;;;;;;11.10;87.66;98394.97;4856044;29;20405;-74
2022/11/17 11:32:24;;;;;;;6.88;2.03;;;;;;;11.12;85.17;98393.88;4856396;29;20048;-74
2022/11/17 11:35:55;;;;;;;9.73;1.73;;;;;;;11.08;86.74;98392.50;4855601;29;20102;-73
2022/11/17 11:39:09;;;;;;;11.18;1.98;;;;;;;11.10;87.57;98403.66;4857451;29;20047;-74
2022/11/17 11:47:36;;;;;;;8.82;1.50;;;;;;;11.04;89.54;98395.50;4857137;29;20570;-72
2022/11/17 11:50:49;;;;;;;8.00;2.20;;;;;;;11.24;87.12;98391.97;4838451;29;20452;-74
2022/11/17 11:53:59;;;;;;;10.93;2.30;;;;;;;11.31;84.54;98393.06;4840140;29;20049;-74
2022/11/17 11:57:03;;;;;;;7.60;2.03;;;;;;;11.41;86.99;98401.75;4860861;29;20075;-74
2022/11/17 12:00:14;;;;;;;8.02;1.95;;;;;;;11.40;89.19;98401.91;4859982;29;20040;-74
2022/11/17 12:03:20;;;;;;;9.52;2.08;;;;;;;11.46;87.38;98395.28;4858511;29;20039;-74
2022/11/17 12:06:44;;;;;;;7.18;1.70;;;;;;;11.43;87.95;98400.81;4859020;29;20133;-74
2022/11/17 12:09:58;;;;;;;8.27;1.48;;;;;;;11.55;85.91;98410.13;4860231;29;20194;-73
2022/11/17 12:13:04;;;;;;;8.98;1.60;;;;;;;11.60;86.36;98407.94;4860146;29;20076;-73
2022/11/17 12:16:27;;;;;;;12.13;2.63;;;;;;;11.54;84.84;98413.72;4859720;29;20557;-73
2022/11/17 12:19:52;;;;;;;9.00;2.05;;;;;;;11.38;85.66;98412.47;4841319;29;20559;-74
2022/11/17 12:23:22;;;;;;;10.30;1.73;;;;;;;11.46;85.02;98405.75;4856803;29;20532;-75
2022/11/17 12:26:48;;;;;;;9.75;2.65;;;;;;;11.52;83.35;98398.19;4859143;29;20065;-73
2022/11/17 12:29:53;;;;;;;10.05;1.38;;;;;;;11.54;85.28;98414.56;4859548;29;20101;-73
2022/11/17 12:32:59;;;;;;;8.30;2.38;;;;;;;11.43;83.69;98401.63;4859549;29;20080;-73
2022/11/17 12:36:22;;;;;;;6.32;1.70;;;;;;;11.49;88.26;98408.09;4841775;29;20109;-73
2022/11/17 12:39:52;;;;;;;10.33;1.83;;;;;;;11.53;90.38;98419.94;4844239;29;20512;-73
2022/11/17 12:43:13;;;;;;;8.68;1.73;;;;;;;11.53;91.41;98426.00;4843772;29;20309;-73
2022/11/17 12:46:25;;;;;;;23.20;10.80;;;;;;;11.48;92.25;98425.56;4844515;29;20578;-74
2022/11/17 12:49:40;;;;;;;11.55;3.05;;;;;;;11.49;93.96;98418.56;4844980;29;20073;-73
2022/11/17 12:53:02;;;;;;;15.25;3.63;;;;;;;11.55;93.68;98420.63;4844376;29;20482;-73
2022/11/17 12:56:22;;;;;;;7.20;2.13;;;;;;;11.66;94.48;98419.66;4843978;29;20056;-73
2022/11/17 12:59:43;;;;;;;10.07;2.55;;;;;;;11.74;94.21;98415.41;4844745;29;20098;-74
2022/11/17 13:07:20;;;;;;;8.43;1.95;;;;;;;11.73;94.55;98418.97;4844747;29;20049;-73
2022/11/17 13:10:28;;;;;;;11.63;3.17;;;;;;;11.70;94.70;98423.66;4842906;29;20098;-73
2022/11/17 13:13:31;;;;;;;9.80;2.38;;;;;;;11.66;90.73;98420.50;4842251;29;20438;-73
2022/11/17 13:16:41;;;;;;;7.88;3.50;;;;;;;11.78;88.92;98411.53;4842450;29;20056;-73
2022/11/17 13:19:58;;;;;;;8.82;2.33;;;;;;;11.79;91.38;98417.59;4842278;29;20410;-74
2022/11/17 13:23:12;;;;;;;10.13;2.63;;;;;;;11.93;88.02;98424.22;4842604;29;20053;-71
2022/11/17 13:26:15;;;;;;;7.93;2.20;;;;;;;11.95;84.30;98407.41;4843949;29;20061;-70
2022/11/17 13:29:20;;;;;;;9.95;2.10;;;;;;;11.95;78.26;98412.63;4843398;29;20114;-70
2022/11/17 13:33:14;;;;;;;8.85;2.35;;;;;;;11.95;74.24;98411.81;4843289;29;20529;-70
2022/11/17 13:36:19;;;;;;;6.30;2.25;;;;;;;12.01;77.24;98416.50;4838492;29;20049;-71
2022/11/17 13:39:23;;;;;;;8.73;2.58;;;;;;;12.03;77.20;98419.81;4840166;29;20125;-71
2022/11/17 13:42:31;;;;;;;4.22;1.10;;;;;;;11.91;76.68;98432.22;4858960;29;20082;-70
2022/11/17 13:45:34;;;;;;;7.30;1.30;;;;;;;11.69;78.91;98437.72;4844478;29;20128;-70
2022/11/17 13:48:46;;;;;;;4.85;0.98;;;;;;;11.48;79.76;98430.81;4841701;29;20417;-70
2022/11/17 13:51:50;;;;;;;6.03;1.27;;;;;;;11.38;78.65;98438.66;4843776;29;20128;-71
2022/11/17 13:54:54;;;;;;;5.95;0.82;;;;;;;11.19;83.29;98438.63;4856905;29;20101;-70
2022/11/17 14:02:21;;;;;;;8.45;1.60;;;;;;;11.15;87.78;98447.72;4847247;29;20124;-71
2022/11/17 14:05:29;;;;;;;5.45;1.02;;;;;;;11.21;88.12;98455.03;4856747;29;20542;-71
2022/11/17 14:08:41;;;;;;;5.03;1.25;;;;;;;11.11;88.69;98454.19;4858001;29;20052;-72
2022/11/17 14:11:45;;;;;;;6.43;2.78;;;;;;;11.17;89.66;98464.94;4854652;29;20052;-71
2022/11/17 14:14:52;;;;;;;7.82;3.75;;;;;;;11.14;90.15;98459.97;4828349;29;20575;-71
2022/11/17 14:18:01;;;;;;;7.47;3.83;;;;;;;11.12;91.48;98453.22;4854804;29;20482;-71
2022/11/17 14:21:18;;;;;;;6.85;1.67;;;;;;;10.99;93.21;98461.31;4847325;29;20057;-71
2022/11/17 14:24:21;;;;;;;8.77;4.55;;;;;;;11.07;92.98;98463.22;4857663;29;20080;-70
2022/11/17 14:32:15;;;;;;;7.13;2.10;;;;;;;10.94;92.93;98459.09;4843585;29;20413;-70
2022/11/17 14:35:18;;;;;;;6.93;2.42;;;;;;;10.97;93.88;98463.22;4858139;29;20078;-71
2022/11/17 14:38:22;;;;;;;3.22;0.88;;;;;;;10.90;95.52;98457.69;4858327;29;20068;-71
2022/11/17 14:41:26;;;;;;;5.93;0.90;;;;;;;10.92;95.84;98458.41;4858085;29;20056;-75
2022/11/17 14:44:30;;;;;;;12.70;1.67;;;;;;;10.89;96.23;98466.50;4849904;29;20121;-70
2022/11/17 14:47:44;;;;;;;6.03;1.35;;;;;;;10.80;96.82;98469.91;4853208;29;20048;-71
2022/11/17 14:51:00;;;;;;;9.10;1.10;;;;;;;10.72;97.44;98469.75;4837980;29;20133;-71
2022/11/17 14:54:07;;;;;;;6.43;1.17;;;;;;;10.96;96.48;98476.44;4843020;29;20048;-72
2022/11/17 14:57:10;;;;;;;10.00;1.85;;;;;;;10.91;96.27;98477.66;4846355;29;20483;-72
2022/11/17 15:00:17;;;;;;;6.93;2.33;;;;;;;10.84;96.74;98473.06;4837525;29;20133;-72
2022/11/17 15:03:20;;;;;;;8.10;2.83;;;;;;;10.78;98.08;98473.59;4854854;29;20097;-72
2022/11/17 15:06:24;;;;;;;11.73;4.05;;;;;;;10.73;97.82;98471.41;4856285;29;20060;-72
2022/11/17 15:09:28;;;;;;;8.15;3.08;;;;;;;10.71;98.22;98471.50;4856938;29;20128;-72
2022/11/17 15:12:56;;;;;;;8.15;1.90;;;;;;;10.62;98.08;98468.84;4857399;29;20143;-71
2022/11/17 15:27:01;;;;;;;7.65;1.45;;;;;;;10.56;97.69;98469.38;4862924;29;20057;-71
2022/11/17 15:30:12;;;;;;;5.45;1.02;;;;;;;10.50;97.66;98472.50;4868579;29;20088;-71
2022/11/17 15:33:16;;;;;;;9.05;2.80;;;;;;;10.41;97.73;98477.56;4860879;29;20100;-71
2022/11/17 15:36:21;;;;;;;9.23;1.75;;;;;;;10.42;98.08;98475.78;4873671;29;20059;-72
2022/11/17 15:39:52;;;;;;;4.70;1.25;;;;;;;10.27;98.44;98474.44;4873641;29;20068;-72
2022/11/17 15:42:56;;;;;;;5.80;1.73;;;;;;;10.37;97.90;98485.78;4874571;29;20458;-71
2022/11/17 15:46:01;;;;;;;15.30;4.75;;;;;;;10.32;97.87;98488.78;4873309;29;20136;-72
2022/11/17 15:49:05;;;;;;;11.30;6.45;;;;;;;10.26;98.13;98484.06;4874370;29;20401;-71
2022/11/17 15:52:36;;;;;;;8.63;3.95;;;;;;;10.36;97.10;98490.19;4873775;29;20547;-72
2022/11/17 15:57:00;;;;;;;14.18;9.52;;;;;;;10.23;96.36;98499.97;4835046;29;20060;-71
2022/11/17 16:01:23;;;;;;;12.38;7.78;;;;;;;10.31;96.30;98507.22;4838387;29;20128;-71
2022/11/17 16:05:08;;;;;;;;;;;;;;;;;;;;;
2022/11/17 16:08:56;;;;;;;24.05;13.70;;;;;;;10.30;95.70;98495.09;4873810;29;20120;-72
2022/11/17 16:12:01;;;;;;;17.67;10.00;;;;;;;10.21;95.86;98497.50;4862257;29;20516;-72
2022/11/17 16:15:05;;;;;;;14.82;6.47;;;;;;;10.11;96.01;98500.97;4873547;29;20043;-72
2022/11/17 16:18:10;;;;;;;6.85;2.05;;;;;;;9.94;96.51;98497.97;4874306;29;20552;-72
2022/11/17 16:21:15;;;;;;;9.48;2.42;;;;;;;10.05;95.85;98499.72;4874892;29;20105;-72
2022/11/17 16:24:19;;;;;;;11.13;3.80;;;;;;;9.91;95.76;98495.63;4874467;29;20104;-72
2022/11/17 16:27:23;;;;;;;10.77;4.10;;;;;;;9.91;96.17;98505.22;4873440;29;20477;-72
2022/11/17 16:30:26;;;;;;;;;;;;;;;9.90;95.77;98509.63;4870583;29;20064;-72
2022/11/17 16:33:30;;;;;;;9.15;4.55;;;;;;;9.82;95.44;98512.03;4872503;29;19922;-72
2022/11/17 16:36:37;;;;;;;9.73;2.67;;;;;;;9.71;94.99;98519.91;4873615;29;20125;-72
2022/11/17 16:39:41;;;;;;;9.05;3.50;;;;;;;9.76;95.28;98517.72;4874972;29;20457;-72
2022/11/17 16:42:45;;;;;;;14.00;3.95;;;;;;;9.65;95.14;98528.22;4877804;29;20060;-71
2022/11/17 16:45:49;;;;;;;10.38;2.95;;;;;;;9.53;94.80;98538.69;4879429;29;20128;-71
2022/11/17 16:48:52;;;;;;;12.98;5.43;;;;;;;9.54;94.75;98531.69;4881670;29;20055;-71
2022/11/17 16:51:55;;;;;;;10.18;4.65;;;;;;;9.46;94.44;98534.91;4881237;29;20132;-71
2022/11/17 16:54:58;;;;;;;;;;;;;;;9.31;95.12;98534.31;4881501;29;20156;-72